createdAt,value
2017-06-15T00:00:09.338Z,51.60
2017-06-15T00:02:35.829Z,51.70
2017-06-15T00:05:02.392Z,50.80
2017-06-15T00:07:28.953Z,51.60
2017-06-15T00:09:55.521Z,51.80
2017-06-15T00:12:22.072Z,51.20
2017-06-15T00:14:48.621Z,51.60
2017-06-15T00:17:15.141Z,51.60
2017-06-15T00:19:41.676Z,52.00
2017-06-15T00:22:08.262Z,52.20
2017-06-15T00:24:35.584Z,53.00
2017-06-15T00:27:02.168Z,52.90
2017-06-15T00:29:29.453Z,52.00
2017-06-15T00:31:56.794Z,52.00
2017-06-15T00:34:23.542Z,51.90
2017-06-15T00:36:50.130Z,52.90
2017-06-15T00:39:17.437Z,52.00
2017-06-15T00:41:43.993Z,52.00
2017-06-15T00:44:10.662Z,50.80
2017-06-15T00:46:37.241Z,51.80
2017-06-15T00:49:03.842Z,51.60
2017-06-15T00:51:30.413Z,51.10
2017-06-15T00:53:57.013Z,51.60
2017-06-15T00:56:23.562Z,52.10
2017-06-15T00:58:50.137Z,52.10
2017-06-15T01:01:16.681Z,52.40
2017-06-15T01:03:43.222Z,52.60
2017-06-15T01:06:09.768Z,52.40
2017-06-15T01:08:36.357Z,52.30
2017-06-15T01:11:02.957Z,51.70
2017-06-15T01:13:29.527Z,51.70
2017-06-15T01:15:56.030Z,52.50
2017-06-15T01:18:22.569Z,53.10
2017-06-15T01:20:49.157Z,52.90
2017-06-15T01:23:15.733Z,52.60
2017-06-15T01:25:42.324Z,52.40
2017-06-15T01:28:08.885Z,53.20
2017-06-15T01:30:35.553Z,53.00
2017-06-15T01:33:02.147Z,52.90
2017-06-15T01:35:29.469Z,52.80
2017-06-15T01:37:56.124Z,52.70
2017-06-15T01:40:22.677Z,53.30
2017-06-15T01:42:49.267Z,53.20
2017-06-15T01:45:15.865Z,53.70
2017-06-15T01:47:42.512Z,53.80
2017-06-15T01:50:09.173Z,53.40
2017-06-15T01:52:35.622Z,54.10
2017-06-15T01:55:02.189Z,53.40
2017-06-15T01:57:28.754Z,53.60
2017-06-15T01:59:55.801Z,54.40
2017-06-15T02:02:22.381Z,53.50
2017-06-15T02:04:48.928Z,54.80
2017-06-15T02:07:15.501Z,55.00
2017-06-15T02:09:42.081Z,55.10
2017-06-15T02:12:08.629Z,54.90
2017-06-15T02:14:35.212Z,54.90
2017-06-15T02:17:01.770Z,55.10
2017-06-15T02:19:28.353Z,54.30
2017-06-15T02:21:54.913Z,55.20
2017-06-15T02:24:21.414Z,54.90
2017-06-15T02:26:48.047Z,54.90
2017-06-15T02:29:15.393Z,55.00
2017-06-15T02:31:41.948Z,54.40
2017-06-15T02:34:08.521Z,55.30
2017-06-15T02:36:35.101Z,55.00
2017-06-15T02:39:01.696Z,55.60
2017-06-15T02:41:28.251Z,55.80
2017-06-15T02:43:54.817Z,55.70
2017-06-15T02:46:21.380Z,55.90
2017-06-15T02:48:47.949Z,56.00
2017-06-15T02:51:14.544Z,56.10
2017-06-15T02:53:41.834Z,55.80
2017-06-15T02:56:08.414Z,55.70
2017-06-15T02:58:34.973Z,55.60
2017-06-15T03:01:01.553Z,55.70
2017-06-15T03:03:28.448Z,56.40
2017-06-15T03:05:55.028Z,57.00
2017-06-15T03:08:21.582Z,56.10
2017-06-15T03:10:48.049Z,56.20
2017-06-15T03:13:17.829Z,56.60
2017-06-15T03:15:44.377Z,56.60
2017-06-15T03:18:11.705Z,56.80
2017-06-15T03:20:38.262Z,56.80
2017-06-15T03:23:04.836Z,57.20
2017-06-15T03:25:32.146Z,57.10
2017-06-15T03:28:00.664Z,56.90
2017-06-15T03:30:28.700Z,57.10
2017-06-15T03:32:55.956Z,56.70
2017-06-15T03:35:22.518Z,56.80
2017-06-15T03:37:49.074Z,56.90
2017-06-15T03:40:16.401Z,57.40
2017-06-15T03:42:42.975Z,58.00
2017-06-15T03:45:10.302Z,57.90
2017-06-15T03:47:36.890Z,57.80
2017-06-15T03:50:03.453Z,57.30
2017-06-15T03:52:30.713Z,58.30
2017-06-15T03:54:57.273Z,57.20
2017-06-15T03:57:23.830Z,57.70
2017-06-15T03:59:50.389Z,57.80
2017-06-15T04:02:18.033Z,57.40
2017-06-15T04:04:44.613Z,58.40
2017-06-15T04:07:11.205Z,58.50
2017-06-15T04:09:37.785Z,57.70
2017-06-15T04:12:04.341Z,58.50
2017-06-15T04:14:31.677Z,58.10
2017-06-15T04:16:58.236Z,58.00
2017-06-15T04:19:24.853Z,58.60
2017-06-15T04:21:51.282Z,57.80
2017-06-15T04:24:17.838Z,57.90
2017-06-15T04:26:44.481Z,58.40
2017-06-15T04:29:11.065Z,58.80
2017-06-15T04:31:37.635Z,58.80
2017-06-15T04:34:08.272Z,58.70
2017-06-15T04:36:35.885Z,57.90
2017-06-15T04:39:02.500Z,59.10
2017-06-15T04:41:29.071Z,58.20
2017-06-15T04:43:55.621Z,57.60
2017-06-15T04:46:22.202Z,58.10
2017-06-15T04:48:48.757Z,58.10
2017-06-15T04:51:15.412Z,57.60
2017-06-15T04:53:41.999Z,57.40
2017-06-15T04:56:08.552Z,57.30
2017-06-15T04:58:35.113Z,56.80
2017-06-15T05:01:01.664Z,57.50
2017-06-15T05:03:28.215Z,56.70
2017-06-15T05:05:55.523Z,58.00
2017-06-15T05:08:23.127Z,58.00
2017-06-15T05:10:49.712Z,57.20
2017-06-15T05:13:16.308Z,57.10
2017-06-15T05:15:42.860Z,57.60
2017-06-15T05:18:15.989Z,57.00
2017-06-15T05:20:43.498Z,57.50
2017-06-15T05:23:10.094Z,57.40
2017-06-15T05:25:37.473Z,57.70
2017-06-15T05:28:04.258Z,57.70
2017-06-15T05:30:30.817Z,57.30
2017-06-15T05:32:58.100Z,57.70
2017-06-15T05:35:24.657Z,57.10
2017-06-15T05:37:51.233Z,58.00
2017-06-15T05:40:17.930Z,58.00
2017-06-15T05:42:44.730Z,57.30
2017-06-15T05:45:11.321Z,57.60
2017-06-15T05:47:37.926Z,55.30
2017-06-15T05:50:04.523Z,53.10
2017-06-15T05:52:31.836Z,53.60
2017-06-15T05:54:58.418Z,52.90
2017-06-15T05:57:24.981Z,51.30
2017-06-15T05:59:52.369Z,50.60
2017-06-15T06:02:18.912Z,50.60
2017-06-15T06:04:46.464Z,50.20
2017-06-15T06:07:12.989Z,49.90
2017-06-15T06:09:39.581Z,48.80
2017-06-15T06:12:06.226Z,51.10
2017-06-15T06:14:33.528Z,49.00
2017-06-15T06:17:00.121Z,49.00
2017-06-15T06:19:27.425Z,50.50
2017-06-15T06:21:54.015Z,50.40
2017-06-15T06:24:20.574Z,49.40
2017-06-15T06:26:47.216Z,50.30
2017-06-15T06:29:13.837Z,48.50
2017-06-15T06:31:40.528Z,47.90
2017-06-15T06:34:07.101Z,46.60
2017-06-15T06:36:33.665Z,47.90
2017-06-15T06:39:00.325Z,45.70
2017-06-15T06:41:26.889Z,47.10
2017-06-15T06:43:53.414Z,47.60
2017-06-15T06:46:19.953Z,47.00
2017-06-15T06:48:46.545Z,46.70
2017-06-15T06:51:13.149Z,46.70
2017-06-15T06:53:39.880Z,44.70
2017-06-15T06:56:09.401Z,45.40
2017-06-15T06:58:36.151Z,45.80
2017-06-15T07:01:03.194Z,46.30
2017-06-15T07:03:30.004Z,46.00
2017-06-15T07:05:56.798Z,46.00
2017-06-15T07:08:24.339Z,45.20
2017-06-15T07:10:52.873Z,45.70
2017-06-15T07:13:20.489Z,45.00
2017-06-15T07:15:47.199Z,44.60
2017-06-15T07:18:14.502Z,44.50
2017-06-15T07:20:51.216Z,43.20
2017-06-15T07:23:18.735Z,42.60
2017-06-15T07:25:51.178Z,42.80
2017-06-15T07:28:18.021Z,43.00
2017-06-15T07:30:47.212Z,41.70
2017-06-15T07:33:14.179Z,41.50
2017-06-15T07:35:41.107Z,40.70
2017-06-15T07:38:08.818Z,42.60
2017-06-15T07:40:43.032Z,40.80
2017-06-15T07:43:18.420Z,39.70
2017-06-15T07:45:45.298Z,40.60
2017-06-15T07:48:11.881Z,39.90
2017-06-15T07:50:38.421Z,37.80
2017-06-15T07:53:05.878Z,39.20
2017-06-15T07:55:32.489Z,39.20
2017-06-15T07:57:59.145Z,39.00
2017-06-15T08:00:26.463Z,38.40
2017-06-15T08:03:00.119Z,38.30
2017-06-15T08:05:26.688Z,37.00
2017-06-15T08:07:53.253Z,37.40
2017-06-15T08:10:19.800Z,36.40
2017-06-15T08:12:47.089Z,34.80
2017-06-15T08:15:13.680Z,34.80
2017-06-15T08:17:40.340Z,35.00
2017-06-15T08:20:06.924Z,33.90
2017-06-15T08:22:33.488Z,32.10
2017-06-15T08:25:00.134Z,31.30
2017-06-15T08:27:26.736Z,29.80
2017-06-15T08:29:53.333Z,30.60
2017-06-15T08:32:19.906Z,30.80
2017-06-15T08:34:46.517Z,29.60
2017-06-15T08:37:13.092Z,29.70
2017-06-15T08:39:39.820Z,29.40
2017-06-15T08:42:06.392Z,28.80
2017-06-15T08:44:41.565Z,27.50
2017-06-15T08:47:08.163Z,28.00
2017-06-15T08:49:35.026Z,27.70
2017-06-15T08:52:01.601Z,27.50
2017-06-15T08:54:28.173Z,28.10
2017-06-15T08:56:55.529Z,30.00
2017-06-15T08:59:22.153Z,29.80
2017-06-15T09:01:49.465Z,30.00
2017-06-15T09:04:15.985Z,29.40
2017-06-15T09:06:42.590Z,30.20
2017-06-15T09:09:09.185Z,30.70
2017-06-15T09:11:36.478Z,32.10
2017-06-15T09:14:03.033Z,32.20
2017-06-15T09:16:29.601Z,32.20
2017-06-15T09:18:56.165Z,31.80
2017-06-15T09:21:23.484Z,32.80
2017-06-15T09:23:50.057Z,32.90
2017-06-15T09:26:16.613Z,32.00
2017-06-15T09:28:43.197Z,31.80
2017-06-15T09:31:09.749Z,32.30
2017-06-15T09:33:36.330Z,30.90
2017-06-15T09:36:02.901Z,30.20
2017-06-15T09:38:29.449Z,30.00
2017-06-15T09:40:55.997Z,31.00
2017-06-15T09:43:22.545Z,30.70
2017-06-15T09:45:49.090Z,30.20
2017-06-15T09:48:15.678Z,32.20
2017-06-15T09:50:42.249Z,31.80
2017-06-15T09:53:08.829Z,30.00
2017-06-15T09:55:35.410Z,30.30
2017-06-15T09:58:01.950Z,30.30
2017-06-15T10:00:28.561Z,29.20
2017-06-15T10:02:55.093Z,29.80
2017-06-15T10:05:21.699Z,32.90
2017-06-15T10:07:48.297Z,30.00
2017-06-15T10:10:14.944Z,31.60
2017-06-15T10:12:42.150Z,32.50
2017-06-15T10:15:08.713Z,31.20
2017-06-15T10:17:35.302Z,30.40
2017-06-15T10:20:01.849Z,30.00
2017-06-15T10:22:28.436Z,29.40
2017-06-15T10:24:54.918Z,31.10
2017-06-15T10:27:21.481Z,29.30
2017-06-15T10:29:48.041Z,31.50
2017-06-15T10:32:14.801Z,30.70
2017-06-15T10:34:41.374Z,28.60
2017-06-15T10:37:07.945Z,28.90
2017-06-15T10:39:34.405Z,31.10
2017-06-15T10:42:00.987Z,29.30
2017-06-15T10:44:27.829Z,30.80
2017-06-15T10:46:54.393Z,29.70
2017-06-15T10:49:20.889Z,29.30
2017-06-15T10:51:47.543Z,29.80
2017-06-15T10:54:14.002Z,29.90
2017-06-15T10:56:40.665Z,30.10
2017-06-15T10:59:07.449Z,31.30
2017-06-15T11:01:34.072Z,29.20
2017-06-15T11:04:00.767Z,29.80
2017-06-15T11:06:27.356Z,29.50
2017-06-15T11:08:54.977Z,29.10
2017-06-15T11:11:21.568Z,29.90
2017-06-15T11:13:48.215Z,29.10
2017-06-15T11:16:15.195Z,28.20
2017-06-15T11:18:41.669Z,29.30
2017-06-15T11:21:08.478Z,29.10
2017-06-15T11:23:35.053Z,28.20
2017-06-15T11:26:01.622Z,29.60
2017-06-15T11:28:28.106Z,28.20
2017-06-15T11:30:54.609Z,28.50
2017-06-15T11:33:21.184Z,27.90
2017-06-15T11:35:47.746Z,28.30
2017-06-15T11:38:14.705Z,27.80
2017-06-15T11:40:41.210Z,27.90
2017-06-15T11:43:07.794Z,28.90
2017-06-15T11:45:34.403Z,29.10
2017-06-15T11:48:00.981Z,28.30
2017-06-15T11:50:27.588Z,27.80
2017-06-15T11:52:54.037Z,28.60
2017-06-15T11:55:20.386Z,28.10
2017-06-15T11:57:46.697Z,28.40
2017-06-15T12:00:13.073Z,28.40
2017-06-15T12:02:39.411Z,27.90
2017-06-15T12:05:06.134Z,28.90
2017-06-15T12:07:33.674Z,28.20
2017-06-15T12:10:00.006Z,28.80
2017-06-15T12:12:26.363Z,28.20
2017-06-15T12:14:52.707Z,28.60
2017-06-15T12:17:19.053Z,27.80
2017-06-15T12:19:45.445Z,28.30
2017-06-15T12:22:11.763Z,28.40
2017-06-15T12:24:38.126Z,28.40
2017-06-15T12:27:04.481Z,29.10
2017-06-15T12:29:30.802Z,26.40
2017-06-15T12:31:57.129Z,28.50
2017-06-15T12:34:23.476Z,27.60
2017-06-15T12:36:49.831Z,28.60
2017-06-15T12:39:16.153Z,27.10
2017-06-15T12:41:42.474Z,28.30
2017-06-15T12:44:08.817Z,29.40
2017-06-15T12:46:35.147Z,27.60
2017-06-15T12:49:01.478Z,27.80
2017-06-15T12:51:27.866Z,27.20
2017-06-15T12:53:54.247Z,27.70
2017-06-15T12:56:20.677Z,27.50
2017-06-15T12:58:47.026Z,27.40
2017-06-15T13:01:13.366Z,26.30
2017-06-15T13:03:39.716Z,26.10
2017-06-15T13:06:06.053Z,28.30
2017-06-15T13:08:32.396Z,27.20
2017-06-15T13:11:00.338Z,27.20
2017-06-15T13:13:27.412Z,26.50
2017-06-15T13:15:53.748Z,27.10
2017-06-15T13:18:20.121Z,27.10
2017-06-15T13:20:46.621Z,26.90
2017-06-15T13:23:12.960Z,27.00
2017-06-15T13:25:44.124Z,26.60
2017-06-15T13:28:11.184Z,27.40
2017-06-15T13:30:37.726Z,27.00
2017-06-15T13:33:04.149Z,27.10
2017-06-15T13:35:30.616Z,27.40
2017-06-15T13:37:56.982Z,27.40
2017-06-15T13:40:23.343Z,26.90
2017-06-15T13:42:52.897Z,26.70
2017-06-15T13:45:19.221Z,27.20
2017-06-15T13:47:45.566Z,27.90
2017-06-15T13:50:11.881Z,27.10
2017-06-15T13:52:38.199Z,27.60
2017-06-15T13:55:04.542Z,27.40
2017-06-15T13:57:31.617Z,27.70
2017-06-15T13:59:57.933Z,27.10
2017-06-15T14:02:31.916Z,27.00
2017-06-15T14:04:58.250Z,28.10
2017-06-15T14:07:24.584Z,27.70
2017-06-15T14:09:50.905Z,27.90
2017-06-15T14:12:17.241Z,27.70
2017-06-15T14:14:43.565Z,27.90
2017-06-15T14:17:09.893Z,28.10
2017-06-15T14:19:40.248Z,28.90
2017-06-15T14:22:06.809Z,28.30
2017-06-15T14:24:33.397Z,28.80
2017-06-15T14:26:59.945Z,28.20
2017-06-15T14:29:26.407Z,28.80
2017-06-15T14:31:52.978Z,29.10
2017-06-15T14:34:19.579Z,28.70
2017-06-15T14:36:49.230Z,29.30
2017-06-15T14:39:17.623Z,27.90
2017-06-15T14:41:44.118Z,28.30
2017-06-15T14:44:10.687Z,28.80
2017-06-15T14:46:37.262Z,28.40
2017-06-15T14:49:03.809Z,28.90
2017-06-15T14:51:30.401Z,28.60
2017-06-15T14:53:56.981Z,28.90
2017-06-15T14:56:27.113Z,29.00
2017-06-15T14:58:53.695Z,28.80
2017-06-15T15:01:20.267Z,28.80
2017-06-15T15:03:46.853Z,29.30
2017-06-15T15:06:13.443Z,28.90
2017-06-15T15:08:52.218Z,29.20
2017-06-15T15:11:24.201Z,30.30
2017-06-15T15:13:51.605Z,32.50
2017-06-15T15:16:18.158Z,32.50
2017-06-15T15:18:44.717Z,34.20
2017-06-15T15:21:11.266Z,38.10
2017-06-15T15:23:47.105Z,38.10
2017-06-15T15:26:13.668Z,41.10
2017-06-15T15:28:40.190Z,41.60
2017-06-15T15:31:06.907Z,42.90
2017-06-15T15:33:34.230Z,43.80
2017-06-15T15:36:00.832Z,43.70
2017-06-15T15:38:27.562Z,41.70
2017-06-15T15:40:54.205Z,41.70
2017-06-15T15:43:20.888Z,43.70
2017-06-15T15:45:47.457Z,44.00
2017-06-15T15:48:14.001Z,45.30
2017-06-15T15:50:40.556Z,45.30
2017-06-15T15:53:07.117Z,45.20
2017-06-15T15:55:33.665Z,45.30
2017-06-15T15:58:00.196Z,44.80
2017-06-15T16:00:27.764Z,43.20
2017-06-15T16:02:55.156Z,44.30
2017-06-15T16:05:21.685Z,44.30
2017-06-15T16:07:48.281Z,44.80
2017-06-15T16:13:12.174Z,45.90
2017-06-15T16:15:39.544Z,50.70
2017-06-15T16:18:06.100Z,50.60
2017-06-15T16:20:32.703Z,51.80
2017-06-15T16:22:59.269Z,52.90
2017-06-15T16:25:26.589Z,53.30
2017-06-15T16:27:53.197Z,53.80
2017-06-15T16:30:19.863Z,54.60
2017-06-15T16:32:46.483Z,54.50
2017-06-15T16:35:13.078Z,55.20
2017-06-15T16:37:39.685Z,55.10
2017-06-15T16:40:06.677Z,56.40
2017-06-15T16:42:33.969Z,57.00
2017-06-15T16:45:00.550Z,57.00
2017-06-15T16:47:27.129Z,57.60
2017-06-15T16:49:53.720Z,56.20
2017-06-15T16:52:20.286Z,56.10
2017-06-15T16:54:46.897Z,57.10
2017-06-15T16:57:13.452Z,56.80
2017-06-15T16:59:40.040Z,56.00
2017-06-15T17:02:06.601Z,57.50
2017-06-15T17:04:33.927Z,56.50
2017-06-15T17:07:00.495Z,56.40
2017-06-15T17:09:27.099Z,56.00
2017-06-15T17:11:53.726Z,55.00
2017-06-15T17:14:20.240Z,55.10
2017-06-15T17:16:46.976Z,55.10
2017-06-15T17:19:13.528Z,55.10
2017-06-15T17:21:40.293Z,55.20
2017-06-15T17:24:06.900Z,57.10
2017-06-15T17:26:34.292Z,57.90
2017-06-15T17:29:00.803Z,57.90
2017-06-15T17:31:27.352Z,58.30
2017-06-15T17:33:53.953Z,59.30
2017-06-15T17:36:20.517Z,59.60
2017-06-15T17:38:47.797Z,59.20
2017-06-15T17:41:14.217Z,59.10
2017-06-15T17:43:41.556Z,60.40
2017-06-15T17:46:08.170Z,60.20
2017-06-15T17:48:35.412Z,60.50
2017-06-15T17:51:01.869Z,60.20
2017-06-15T17:53:28.453Z,60.00
2017-06-15T17:55:55.013Z,60.30
2017-06-15T17:58:21.721Z,60.00
2017-06-15T18:00:48.281Z,60.40
2017-06-15T18:03:14.812Z,58.40
2017-06-15T18:05:42.399Z,55.80
2017-06-15T18:08:09.727Z,56.10
2017-06-15T18:10:36.474Z,56.10
2017-06-15T18:13:03.047Z,55.10
2017-06-15T18:15:29.744Z,55.10
2017-06-15T18:17:56.444Z,55.10
2017-06-15T18:20:23.039Z,55.10
2017-06-15T18:22:49.501Z,55.10
2017-06-15T18:25:16.943Z,55.70
2017-06-15T18:27:43.546Z,55.10
2017-06-15T18:30:10.305Z,55.00
2017-06-15T18:32:36.929Z,55.10
2017-06-15T18:35:03.683Z,55.40
2017-06-15T18:37:30.150Z,55.40
2017-06-15T18:39:57.473Z,55.60
2017-06-15T18:42:24.086Z,55.10
2017-06-15T18:44:50.753Z,55.00
2017-06-15T18:47:18.097Z,55.00
2017-06-15T18:49:44.677Z,54.90
2017-06-15T18:52:11.259Z,54.90
2017-06-15T18:54:37.876Z,55.30
2017-06-15T18:57:04.487Z,56.00
2017-06-15T18:59:31.040Z,55.90
2017-06-15T19:01:57.622Z,56.20
2017-06-15T19:04:24.868Z,57.00
2017-06-15T19:06:51.486Z,56.80
2017-06-15T19:09:18.097Z,57.50
2017-06-15T19:11:44.732Z,57.90
2017-06-15T19:14:11.825Z,58.00
2017-06-15T19:16:38.379Z,58.70
2017-06-15T19:19:04.977Z,58.80
2017-06-15T19:21:31.794Z,58.30
2017-06-15T19:23:58.392Z,58.60
2017-06-15T19:26:25.010Z,58.80
2017-06-15T19:28:51.574Z,59.20
2017-06-15T19:31:19.780Z,59.10
2017-06-15T19:33:46.400Z,59.20
2017-06-15T19:36:12.921Z,59.10
2017-06-15T19:38:39.473Z,59.40
2017-06-15T19:41:06.070Z,59.80
2017-06-15T19:43:34.752Z,60.50
2017-06-15T19:46:01.313Z,60.10
2017-06-15T19:48:27.923Z,60.40
2017-06-15T19:50:54.503Z,60.40
2017-06-15T19:53:21.080Z,60.70
2017-06-15T19:55:47.634Z,60.40
2017-06-15T19:58:14.260Z,60.50
2017-06-15T20:00:40.835Z,60.50
2017-06-15T20:03:07.502Z,60.60
2017-06-15T20:05:34.064Z,59.80
2017-06-15T20:08:01.484Z,60.30
2017-06-15T20:10:28.058Z,60.30
2017-06-15T20:12:54.620Z,59.90
2017-06-15T20:15:21.192Z,59.70
2017-06-15T20:17:47.867Z,58.60
2017-06-15T20:20:14.444Z,58.60
2017-06-15T20:22:41.058Z,55.90
2017-06-15T20:25:07.624Z,53.30
2017-06-15T20:27:34.336Z,51.30
2017-06-15T20:30:00.812Z,51.60
2017-06-15T20:32:27.173Z,53.30
2017-06-15T20:34:53.605Z,54.00
2017-06-15T20:37:20.935Z,54.20
2017-06-15T20:39:47.281Z,53.50
2017-06-15T20:42:13.698Z,53.20
2017-06-15T20:44:40.023Z,48.20
2017-06-15T20:47:06.334Z,49.10
2017-06-15T20:49:32.702Z,47.20
2017-06-15T20:51:59.049Z,48.60
2017-06-15T20:54:25.420Z,45.40
2017-06-15T20:56:51.730Z,48.00
2017-06-15T20:59:18.621Z,44.60
2017-06-15T21:01:44.997Z,48.90
2017-06-15T21:04:11.784Z,49.30
2017-06-15T21:06:38.229Z,47.30
2017-06-15T21:09:04.589Z,45.50
2017-06-15T21:11:31.104Z,46.70
2017-06-15T21:13:57.505Z,48.10
2017-06-15T21:16:24.335Z,47.10
2017-06-15T21:18:50.821Z,47.50
2017-06-15T21:21:17.273Z,48.70
2017-06-15T21:23:43.633Z,47.10
2017-06-15T21:26:09.989Z,46.10
2017-06-15T21:28:36.353Z,46.40
2017-06-15T21:31:02.660Z,48.70
2017-06-15T21:33:28.977Z,49.80
2017-06-15T21:35:55.651Z,49.50
2017-06-15T21:38:22.823Z,49.00
2017-06-15T21:40:49.575Z,49.30
2017-06-15T21:43:16.017Z,49.30
2017-06-15T21:45:43.452Z,47.30
2017-06-15T21:48:10.898Z,46.60
2017-06-15T21:50:37.545Z,46.50
2017-06-15T21:53:04.404Z,47.10
2017-06-15T21:55:30.948Z,46.70
2017-06-15T21:57:57.392Z,46.70
2017-06-15T22:00:23.828Z,48.00
2017-06-15T22:02:50.181Z,45.60
2017-06-15T22:05:16.536Z,45.70
2017-06-15T22:07:43.160Z,45.90
2017-06-15T22:10:10.081Z,47.50
2017-06-15T22:12:36.896Z,44.40
2017-06-15T22:15:03.490Z,44.60
2017-06-15T22:17:30.043Z,43.00
2017-06-15T22:19:56.805Z,44.00
2017-06-15T22:22:23.458Z,43.30
2017-06-15T22:24:50.035Z,43.60
2017-06-15T22:27:16.621Z,44.80
2017-06-15T22:29:43.294Z,44.40
2017-06-15T22:32:09.918Z,44.10
2017-06-15T22:34:36.565Z,43.90
2017-06-15T22:37:03.085Z,44.70
2017-06-15T22:39:29.709Z,44.90
2017-06-15T22:41:56.309Z,45.00
2017-06-15T22:44:22.917Z,45.30
2017-06-15T22:46:49.465Z,45.40
2017-06-15T22:49:17.159Z,45.60
2017-06-15T22:51:43.715Z,45.50
2017-06-15T22:54:10.193Z,45.40
2017-06-15T22:56:37.492Z,46.00
2017-06-15T22:59:04.042Z,45.20
2017-06-15T23:01:30.632Z,45.30
2017-06-15T23:03:57.960Z,45.90
2017-06-15T23:06:25.321Z,46.40
2017-06-15T23:08:51.845Z,46.40
2017-06-15T23:11:18.797Z,45.80
2017-06-15T23:13:46.753Z,47.10
2017-06-15T23:16:13.210Z,46.30
2017-06-15T23:18:39.761Z,47.40
2017-06-15T23:21:06.317Z,48.10
2017-06-15T23:23:32.891Z,47.80
2017-06-15T23:25:59.500Z,49.20
2017-06-15T23:28:26.041Z,46.80
2017-06-15T23:30:52.680Z,46.00
2017-06-15T23:33:19.258Z,46.60
2017-06-15T23:35:45.901Z,46.90
2017-06-15T23:38:12.460Z,46.90
2017-06-15T23:40:39.052Z,46.20
2017-06-15T23:43:05.610Z,46.10
2017-06-15T23:45:32.157Z,46.20
2017-06-15T23:47:58.644Z,46.50
2017-06-15T23:50:25.236Z,45.70
2017-06-15T23:52:52.266Z,46.40
2017-06-15T23:55:18.850Z,46.30
2017-06-15T23:57:45.464Z,46.70
